Map

Track Data

SID SEASON NUMBER BASIN SUBBASIN NAME ISO_TIME NATURE LAT LON WMO_WIND WMO_PRES WMO_AGENCY TRACK_TYPE DIST2LAND LANDFALL IFLAG USA_AGENCY USA_ATCF_ID USA_LAT USA_LON USA_RECORD USA_STATUS USA_WIND USA_PRES USA_SSHS USA_R34_NE USA_R34_SE USA_R34_SW USA_R34_NW USA_R50_NE USA_R50_SE USA_R50_SW USA_R50_NW USA_R64_NE USA_R64_SE USA_R64_SW USA_R64_NW USA_POCI USA_ROCI USA_RMW USA_EYE TOKYO_LAT TOKYO_LON TOKYO_GRADE TOKYO_WIND TOKYO_PRES TOKYO_R50_DIR TOKYO_R50_LONG TOKYO_R50_SHORT TOKYO_R30_DIR TOKYO_R30_LONG TOKYO_R30_SHORT TOKYO_LAND CMA_LAT CMA_LON CMA_CAT CMA_WIND CMA_PRES HKO_LAT HKO_LON HKO_CAT HKO_WIND HKO_PRES NEWDELHI_LAT NEWDELHI_LON NEWDELHI_GRADE NEWDELHI_WIND NEWDELHI_PRES NEWDELHI_CI NEWDELHI_DP NEWDELHI_POCI REUNION_LAT REUNION_LON REUNION_TYPE REUNION_WIND REUNION_PRES REUNION_TNUM REUNION_CI REUNION_RMW REUNION_R34_NE REUNION_R34_SE REUNION_R34_SW REUNION_R34_NW REUNION_R50_NE REUNION_R50_SE REUNION_R50_SW REUNION_R50_NW REUNION_R64_NE REUNION_R64_SE REUNION_R64_SW REUNION_R64_NW BOM_LAT BOM_LON BOM_TYPE BOM_WIND BOM_PRES BOM_TNUM BOM_CI BOM_RMW BOM_R34_NE BOM_R34_SE BOM_R34_SW BOM_R34_NW BOM_R50_NE BOM_R50_SE BOM_R50_SW BOM_R50_NW BOM_R64_NE BOM_R64_SE BOM_R64_SW BOM_R64_NW BOM_ROCI BOM_POCI BOM_EYE BOM_POS_METHOD BOM_PRES_METHOD NADI_LAT NADI_LON NADI_CAT NADI_WIND NADI_PRES WELLINGTON_LAT WELLINGTON_LON WELLINGTON_WIND WELLINGTON_PRES DS824_LAT DS824_LON DS824_STAGE DS824_WIND DS824_PRES TD9636_LAT TD9636_LON TD9636_STAGE TD9636_WIND TD9636_PRES TD9635_LAT TD9635_LON TD9635_WIND TD9635_PRES TD9635_ROCI NEUMANN_LAT NEUMANN_LON NEUMANN_CLASS NEUMANN_WIND NEUMANN_PRES MLC_LAT MLC_LON MLC_CLASS MLC_WIND MLC_PRES USA_GUST BOM_GUST BOM_GUST_PER REUNION_GUST REUNION_GUST_PER USA_SEAHGT USA_SEARAD_NE USA_SEARAD_SE USA_SEARAD_SW USA_SEARAD_NW STORM_SPEED STORM_DIR
1987150N13095 1987 32 NI BB NOT_NAMED 1987-05-30 06:00:00 NR 12.9000 94.6000 main 316 287 O_________O___ jtwc_io IO021987 12.9000 94.6000 20 -1 12.9000 94.6000 1 20 7 331
1987150N13095 1987 32 NI BB NOT_NAMED 1987-05-30 09:00:00 NR 13.2150 94.4173 main 287 258 P_________P___ IO021987 13.2250 94.4226 20 -1 13.2051 94.4120 1 20 7 327
1987150N13095 1987 32 NI BB NOT_NAMED 1987-05-30 12:00:00 NR 13.5000 94.2000 main 258 238 O_________O___ jtwc_io IO021987 13.5000 94.2000 20 -1 13.5000 94.2000 1 20 7 318
1987150N13095 1987 32 NI BB NOT_NAMED 1987-05-30 15:00:00 NR 13.7383 93.9275 main 241 219 P_________P___ IO021987 13.7000 93.9074 20 -1 13.7765 93.9476 1 20 7 310
1987150N13095 1987 32 NI BB NOT_NAMED 1987-05-30 18:00:00 NR 13.9671 93.6335 main 219 208 O_________P___ jtwc_io IO021987 13.9000 93.6000 20 -1 14.0342 93.6671 1 20 7 312
1987150N13095 1987 32 NI BB NOT_NAMED 1987-05-30 21:00:00 NR 14.2411 93.3603 main 208 201 P_________P___ IO021987 14.2074 93.3425 20 -1 14.2748 93.3780 1 20 7 316
1987150N13095 1987 32 NI BB NOT_NAMED 1987-05-31 00:00:00 NR 14.5000 93.1000 main 201 201 O_________O___ jtwc_io IO021987 14.5000 93.1000 20 -1 14.5000 93.1000 1 20 7 312
1987150N13095 1987 32 NI BB NOT_NAMED 1987-05-31 03:00:00 NR 14.6879 92.8474 main 209 201 P_________P___ IO021987 14.6575 92.8424 20 -1 14.7183 92.8523 1 21 6 307
1987150N13095 1987 32 NI BB NOT_NAMED 1987-05-31 06:00:00 NR 14.8612 92.6099 main 211 211 O_________P___ jtwc_io IO021987 14.8000 92.6000 20 -1 14.9224 92.6198 1 22 6 312
1987150N13095 1987 32 NI BB NOT_NAMED 1987-05-31 09:00:00 NR 15.0789 92.3974 main 217 217 P_________P___ IO021987 15.0425 92.3925 22 -1 15.1152 92.4024 1 23 6 318
1987150N13095 1987 32 NI BB NOT_NAMED 1987-05-31 12:00:00 NR 15.3000 92.2000 main 228 228 O_________O___ jtwc_io IO021987 15.3000 92.2000 25 -1 15.3000 92.2000 1 25 6 318
1987150N13095 1987 32 NI BB NOT_NAMED 1987-05-31 15:00:00 NR 15.5005 92.0055 main 242 239 P_________P___ IO021987 15.5150 91.9925 25 -1 15.4861 92.0186 1 25 5 317
1987150N13095 1987 32 NI BB NOT_NAMED 1987-05-31 18:00:00 NR 15.6824 91.8249 main 259 257 O_________P___ jtwc_io IO021987 15.7000 91.8000 25 -1 15.6648 91.8497 1 25 5 317
1987150N13095 1987 32 NI BB NOT_NAMED 1987-05-31 21:00:00 NR 15.8468 91.6655 main 268 267 P_________P___ IO021987 15.8575 91.6499 25 -1 15.8361 91.6811 1 25 4 316
1987150N13095 1987 32 NI BB NOT_NAMED 1987-06-01 00:00:00 NR 16.0000 91.5000 main 288 288 O_________O___ jtwc_io IO021987 16.0000 91.5000 25 -1 16.0000 91.5000 1 25 5 312
1987150N13095 1987 32 NI BB NOT_NAMED 1987-06-01 03:00:00 NR 16.1597 91.3022 main 310 310 P_________P___ IO021987 16.1500 91.3150 25 -1 16.1694 91.2894 1 25 5 308
1987150N13095 1987 32 NI BB NOT_NAMED 1987-06-01 06:00:00 NR 16.3150 91.0825 main 332 332 O_________P___ jtwc_io IO021987 16.3000 91.1000 25 -1 16.3300 91.0651 1 25 5 305
1987150N13095 1987 32 NI BB NOT_NAMED 1987-06-01 09:00:00 NR 16.4666 90.8453 main 367 367 P_________P___ IO021987 16.4575 90.8575 25 -1 16.4756 90.8332 1 25 5 302
1987150N13095 1987 32 NI BB NOT_NAMED 1987-06-01 12:00:00 NR 16.6000 90.6000 main 390 390 O_________O___ jtwc_io IO021987 16.6000 90.6000 25 -1 16.6000 90.6000 1 25 5 297
1987150N13095 1987 32 NI BB NOT_NAMED 1987-06-01 15:00:00 NR 16.7057 90.3607 main 413 413 P_________P___ IO021987 16.7150 90.3425 25 -1 16.6965 90.3789 1 26 5 292
1987150N13095 1987 32 NI BB NOT_NAMED 1987-06-01 18:00:00 NR 16.7862 90.1286 main 446 446 O_________P___ jtwc_io IO021987 16.8000 90.1000 25 -1 16.7724 90.1573 1 27 5 288
1987150N13095 1987 32 NI BB NOT_NAMED 1987-06-01 21:00:00 NR 16.8473 89.9122 main 467 465 P_________P___ IO021987 16.8575 89.8925 27 -1 16.8371 89.9320 1 28 4 285
1987150N13095 1987 32 NI BB NOT_NAMED 1987-06-02 00:00:00 NR 16.9000 89.7000 main 484 476 O_________O___ jtwc_io IO021987 16.9000 89.7000 30 -1 16.9000 89.7000 1 30 4 283
1987150N13095 1987 32 NI BB NOT_NAMED 1987-06-02 03:00:00 NR 16.9486 89.4698 main 476 447 P_________P___ IO021987 16.9424 89.5149 32 -1 16.9549 89.4246 1 31 5 283
1987150N13095 1987 32 NI BB NOT_NAMED 1987-06-02 06:00:00 NR 17.0064 89.2237 main 447 424 O_________P___ jtwc_io IO021987 17.0000 89.3000 35 0 17.0127 89.1475 1 32 5 285
1987150N13095 1987 32 NI BB NOT_NAMED 1987-06-02 09:00:00 NR 17.0872 88.9408 main 417 396 P_________P___ IO021987 17.0851 88.9850 35 0 17.0892 88.8966 1 33 5 291
1987150N13095 1987 32 NI BB NOT_NAMED 1987-06-02 12:00:00 NR 17.2000 88.7000 main 396 380 O_________O___ jtwc_io IO021987 17.2000 88.7000 35 0 17.2000 88.7000 2 35 4 304
1987150N13095 1987 32 NI BB NOT_NAMED 1987-06-02 15:00:00 NR 17.3395 88.5576 main 380 356 P_________P___ IO021987 17.3274 88.5550 35 0 17.3517 88.5602 2 35 4 328
1987150N13095 1987 32 NI BB NOT_NAMED 1987-06-02 18:00:00 NR 17.5199 88.4902 main 356 339 O_________P___ jtwc_io IO021987 17.5000 88.5000 35 0 17.5397 88.4803 2 35 4 347
1987150N13095 1987 32 NI BB NOT_NAMED 1987-06-02 21:00:00 NR 17.7465 88.4689 main 339 314 P_________P___ IO021987 17.7350 88.4775 35 0 17.7579 88.4603 2 35 5 0
1987150N13095 1987 32 NI BB NOT_NAMED 1987-06-03 00:00:00 NR 18.0000 88.5000 main 314 298 O_________O___ jtwc_io IO021987 18.0000 88.5000 35 0 18.0000 88.5000 2 35 5 7
1987150N13095 1987 32 NI BB NOT_NAMED 1987-06-03 03:00:00 NR 18.2459 88.5444 main 298 283 P_________P___ IO021987 18.2424 88.5126 37 0 18.2493 88.5762 2 36 5 16
1987150N13095 1987 32 NI BB NOT_NAMED 1987-06-03 06:00:00 NR 18.5100 88.6550 main 290 275 O_________P___ jtwc_io IO021987 18.5000 88.6000 40 0 18.5199 88.7100 2 37 6 28
1987150N13095 1987 32 NI BB NOT_NAMED 1987-06-03 09:00:00 NR 18.7991 88.8544 main 285 278 P_________P___ IO021987 18.7926 88.8199 40 0 18.8056 88.8888 2 38 7 35
1987150N13095 1987 32 NI BB NOT_NAMED 1987-06-03 12:00:00 NR 19.1000 89.1000 main 279 246 O_________O___ jtwc_io IO021987 19.1000 89.1000 40 0 19.1000 89.1000 2 40 8 38
1987150N13095 1987 32 NI BB NOT_NAMED 1987-06-03 15:00:00 NR 19.3884 89.3418 main 246 218 P_________P___ IO021987 19.4000 89.3501 42 0 19.3767 89.3334 2 42 7 39
1987150N13095 1987 32 NI BB NOT_NAMED 1987-06-03 18:00:00 NR 19.6814 89.5962 main 218 193 O_________P___ jtwc_io IO021987 19.7000 89.6000 45 0 19.6628 89.5925 2 45 8 39
1987150N13095 1987 32 NI BB NOT_NAMED 1987-06-03 21:00:00 NR 19.9762 89.8528 main 197 167 P_________P___ IO021987 19.9850 89.8502 47 0 19.9674 89.8553 2 47 8 37
1987150N13095 1987 32 NI BB NOT_NAMED 1987-06-04 00:00:00 NR 20.3000 90.1000 main 167 123 O_________O___ jtwc_io IO021987 20.3000 90.1000 50 0 20.3000 90.1000 2 50 8 34
1987150N13095 1987 32 NI BB NOT_NAMED 1987-06-04 03:00:00 NR 20.6741 90.3466 main 123 84 P_________P___ IO021987 20.6850 90.3724 52 0 20.6631 90.3208 2 50 9 29
1987150N13095 1987 32 NI BB NOT_NAMED 1987-06-04 06:00:00 NR 21.0775 90.5586 main 88 56 O_________P___ jtwc_io IO021987 21.1000 90.6000 55 0 21.0550 90.5172 2 50 9 23
1987150N13095 1987 32 NI BB NOT_NAMED 1987-06-04 09:00:00 NR 21.4809 90.7088 main 56 23 P_________P___ IO021987 21.4924 90.7376 52 0 21.4694 90.6801 2 50 9 15
1987150N13095 1987 32 NI BB NOT_NAMED 1987-06-04 12:00:00 NR 21.9000 90.8000 main 23 0 O_________O___ jtwc_io IO021987 21.9000 90.8000 50 0 21.9000 90.8000 2 50 9 7
1987150N13095 1987 32 NI BB NOT_NAMED 1987-06-04 15:00:00 NR 22.3449 90.8235 main 0 0 P_________P___ IO021987 22.3425 90.8077 45 0 22.3473 90.8392 2 45 9 0
1987150N13095 1987 32 NI BB NOT_NAMED 1987-06-04 18:00:00 NR 22.8033 90.8206 main 0 0 O_________P___ jtwc_io IO021987 22.8000 90.8000 40 0 22.8066 90.8412 2 40 9 0
1987150N13095 1987 32 NI BB NOT_NAMED 1987-06-04 21:00:00 NR 23.2601 90.8375 main 0 0 P_________P___ IO021987 23.2575 90.8276 35 0 23.2627 90.8474 2 35 9 5
1987150N13095 1987 32 NI BB NOT_NAMED 1987-06-05 00:00:00 NR 23.7000 90.9000 main 0 0 O_________O___ jtwc_io IO021987 23.7000 90.9000 30 -1 23.7000 90.9000 1 30 9 12
1987150N13095 1987 32 NI BB NOT_NAMED 1987-06-05 03:00:00 NR 24.1093 91.0298 main 0 0 P_________P___ IO021987 24.1101 91.0322 25 -1 24.1086 91.0273 1 25 8 19
1987150N13095 1987 32 NI BB NOT_NAMED 1987-06-05 06:00:00 NR 24.5000 91.2000 main 0 O_________O___ jtwc_io IO021987 24.5000 91.2000 20 -1 24.5000 91.2000 1 20 8 21

About IBTrACS Database

This database is a web-friendly format of International Best Track Archive for Climate Stewardship (IBTrACS), a global best track data archive curated by NOAA dating back to 1842.

Updated: 2021-12-01